ADDS METAR Data INFO
IDs: Format: Raw Decoded Include TAF

Data at: 0154 UTC 17 Oct 2017

PABI 170053Z 29005KT 10SM FEW013 OVC036 M02/M06 A2962 RMK AO2 SLP054 T10171056
PABI 162353Z 33005KT 10SM SCT013 OVC040 M02/M05 A2962 RMK AO2 SLP054 60000 T10171050 11017 21033 53004
PABI 162253Z 32006KT 10SM SCT013 OVC040 M02/M05 A2961 RMK AO2 SLP052 T10221050
PABI 162153Z 32006KT 10SM SCT013 OVC040 M02/M04 A2961 RMK AO2 SLP051 T10221044
PABI 162053Z 29005KT 10SM BKN009 BKN013 OVC035 M03/M04 A2961 RMK AO2 SLP050 60000 T10281044 51006
PABI 161953Z 28005KT 10SM BKN009 BKN013 OVC035 M03/M04 A2960 RMK AO2 SLP048 SHSN VC N-SE T10281044
PABI 161853Z 28007KT 9SM BKN009 BKN013 OVC035 M03/M04 A2960 RMK AO2 SNE50 SLP047 SHSN VC N-SE P0000 T10331044
PABI 161753Z 30007KT 9SM -SN SCT009 BKN013 OVC035 M03/M04 A2959 RMK AO2 SNB14 SLP043 P0000 60000 T10281044 11022 21028 52003
PABI 161720Z 28008KT 9SM -SN SCT009 SCT015 OVC035 M03/M04 A2958 RMK AO2 SNB14 P0000 T10281044
PABI 161653Z 29007KT 10SM BKN009 OVC029 M03/M04 A2958 RMK AO2 SLP042 T10281039
PABI 161619Z 30005KT 10SM BKN009 OVC029 M03/M04 A2958 RMK AO2 T10281039
PABI 161553Z 26006KT 10SM OVC012 M03/M04 A2958 RMK AO2 SLP042 T10281044
PABI 161453Z 26005KT 9SM OVC013 M02/M05 A2958 RMK AO2 SNB1357E50 SLP040 P0000 60000 T10221050 53003 $
PABI 161353Z AUTO 25005KT 10SM OVC010 M02/M04 A2957 RMK AO2 SLP038 T10221044 TSNO $
PABI 161329Z AUTO 27006KT 10SM OVC009 M02/M03 A2957 RMK AO2 T10221033 TSNO $
PABI 161319Z AUTO 27005KT 10SM BKN010 OVC037 M02/M03 A2957 RMK AO2 CIG 008V013 T10221033 TSNO $
PABI 161253Z AUTO 27005KT 10SM OVC037 M02/M04 A2957 RMK AO2 SLP037 T10221044 TSNO $
PABI 161153Z AUTO 27006KT 10SM FEW027 OVC035 M02/M04 A2957 RMK AO2 SNE1055 SLP036 P0000 60000 T10221044 11011 21022 58001 TSNO $
PABI 161148Z AUTO 26007KT 10SM SCT028 OVC035 M02/M04 A2957 RMK AO2 SNE1055 P0000 TSNO $
PABI 161122Z AUTO 27005KT 10SM OVC029 M02/M04 A2957 RMK AO2 SNE1055 P0000 T10171044 TSNO $
PABI 161053Z AUTO 28003KT 9SM -SN OVC033 M02/M04 A2957 RMK AO2 SNB0956 SLP038 P0000 T10171039 TSNO $
PABI 160953Z AUTO 26005KT 10SM OVC032 M02/M04 A2957 RMK AO2 SLP037 T10171044 TSNO $
PABI 160903Z AUTO 28004KT 10SM OVC030 M01/M04 A2957 RMK AO2 T10111039 TSNO $
PABI 160853Z AUTO 28003KT 10SM OVC028 M01/M04 A2957 RMK AO2 SLP036 T10111039 400061017 53008 TSNO $
PABI 160753Z AUTO 25005KT 10SM OVC027 M01/M03 A2956 RMK AO2 SLP032 T10111033 TSNO $
PABI 160734Z AUTO 25003KT 10SM BKN028 OVC070 M01/M03 A2956 RMK AO2 T10111033 TSNO $
PABI 160653Z AUTO 26003KT 10SM OVC070 M01/M03 A2955 RMK AO2 SLP031 T10111033 TSNO $
PABI 160553Z AUTO 27005KT 10SM OVC070 M01/M03 A2955 RMK AO2 SLP028 T10111033 10006 21011 51003 TSNO $
PABI 160453Z 25004KT 10SM SCT025 OVC070 M01/M04 A2954 RMK SLP028 SHSN DSNT S-SW T10111039 $ VIA AUTODIAL
PABI 160353Z 27003KT 10SM FEW025 SCT041 OVC070 M01/M04 A2954 RMK AO2 SLP027 SHSN DSNT E AND S-SW T10061039 $
PABI 160253Z 27004KT 10SM FEW025 SCT041 OVC065 M01/M03 A2954 RMK AO2 SLP025 SHSN DSNT NE-E AND SW-W T10061033 56003 $
PABI 160153Z 29003KT 10SM FEW025 SCT041 OVC065 00/M03 A2954 RMK AO2 SLP026 SHSN DSNT NE-E AND SW-W T00001033 $
PABI 160053Z 31005KT 10SM FEW025 SCT041 OVC065 01/M04 A2954 RMK AO2 SLP024 SHSN DSNT NE-E AND SW T00061044 $
PABI 152353Z 32004KT 10SM FEW025 SCT041 OVC060 01/M04 A2955 RMK SLP027 SHSN DSNT N-NE AND S-SW T00061044 10006 21011 56000 $ VIA AUTODIAL
PABI 152253Z 34005KT 10SM FEW025 BKN041 OVC060 01/M04 A2955 RMK AO2 SLP027 SHSN DSNT N-NE AND S-SW T00061039 $
PABI 152153Z 00000KT 10SM FEW025 OVC041 00/M03 A2954 RMK AO2 SLP026 SHSN DSNT S-SW T00001028 $
PABI 152053Z 24003KT 10SM OVC041 00/M02 A2955 RMK AO2 SLP027 T00001022 53001 $
PABI 151953Z 26005KT 10SM OVC041 M01/M03 A2954 RMK AO2 SLP026 T10061028 $
PABI 151853Z 25006KT 10SM OVC043 M01/M03 A2954 RMK AO2 SLP024 FG BNK DSNT NE T10061028 $
PABI 151753Z 25003KT 10SM BKN046 OVC085 M01/M03 A2954 RMK AO2 SLP026 BINOVC DSNT NW T10111028 11006 21011 58004 $
PABI 151653Z 24004KT 10SM BKN050 OVC065 M01/M02 A2955 RMK AO2 SLP027 T10111022 $
PABI 151553Z 24004KT 10SM OVC060 M01/M02 A2955 RMK AO2 SLP029 T10111022 $
PABI 151453Z 24004KT 10SM BKN039 OVC090 M01/M03 A2955 RMK AO2 SLP030 T10111028 56009 $